Minden, West Virginia
Current Conditions -  °F | °C
As of 11:51 AM on Tuesday 27 Jan 2015 (Local Time) from KBKW Reporting Station
Clear Clear  
Wind Chill: 13°   Ceiling: Unl
Heat Index: 24°   Visibility: 10mi
Dew Point:   Wind: 12mph
Humidity: 40%   Direction: 310°NW
Pressure: 29.84"   Gusts: NA
Location:  37.98°N, 81.12°W
Report Text: KBKW 271651Z AUTO 31010KT 10SM CLR M04/M16 A2984 RMK AO2 SLP145 T10441161
Loading
Personal Weather Stations






























Interactive Weather Map New forecast layout! Learn more

10-Day Weather Forecast

Advertisements
Track Severe Weather on mobile